»·PEaware :: DAL213 KSFO-KSNA

DAL213 :: KSFO-KSNA

FLIGHT INFORMATION

Flight Status: Arrived
Operator:
Delta Air Lines
More flights by this operator :: More flights under this callsign
Pilot: Nico L. (9332)
Aircraft: BOEING 737-800
(B738)
More flights by this aircraft type
Origin: KSFO San Francisco Intl
United States
Destination: KSNA John Wayne-Orange Co
United States
More flights between these airports :: More routes between these airports
Route: +SAHEY3 CISKO RDHOT OHSEA2
File this flight plan on PilotEdge
Remarks: Live Streaming on Twitch "DAL213" and YT
Altitude:
(Current/Filed)
35,000ft
Speed:
(Current/Filed)
400kts
Departed: 15-May-19 09:10 PM
Arrived: 15-May-19 10:10 PM
Distance/Time
Traveled:
323nm/1:00
Distance/Time
To Go:
Arrived

Flight Plot

Page will automatically refresh every two minutes.


Map Options




Map Legend


Flown Route
Filed Route
Departure Airport
Arrival Airport
Navaid (VOR, NDB)
Fix

Horizontal Profiles

Position Reports

Time Latitude Longitude Heading Altitude Ground
Speed
15-May-19 20:45 37.617862 -122.380641 258 22ft 0kts
15-May-19 20:46 37.617862 -122.380641 258 22ft 0kts
15-May-19 20:47 37.617862 -122.380641 258 22ft 0kts
15-May-19 20:48 37.617862 -122.380641 258 22ft 0kts
15-May-19 20:49 37.617862 -122.380641 258 22ft 0kts
15-May-19 20:50 37.617862 -122.380641 258 22ft 0kts
15-May-19 20:51 37.617862 -122.380641 258 22ft 0kts
15-May-19 20:52 37.617862 -122.380641 258 22ft 0kts
15-May-19 20:53 37.617862 -122.380641 258 22ft 0kts
15-May-19 20:55 37.617862 -122.380641 258 22ft 0kts
15-May-19 20:56 37.617862 -122.380641 258 22ft 0kts
15-May-19 20:57 37.617865 -122.380626 258 22ft 1kts
15-May-19 20:58 37.617686 -122.379767 312 22ft 2kts
15-May-19 20:59 37.617604 -122.379668 318 22ft 0kts
15-May-19 21:00 37.617604 -122.379668 318 22ft 0kts
15-May-19 21:01 37.617604 -122.379668 318 22ft 0kts
15-May-19 21:02 37.617604 -122.379668 318 22ft 0kts
15-May-19 21:03 37.617604 -122.379668 318 22ft 0kts
15-May-19 21:04 37.617604 -122.379668 318 22ft 0kts
15-May-19 21:05 37.618981 -122.379988 3 22ft 10kts
15-May-19 21:06 37.622062 -122.385982 297 22ft 22kts
15-May-19 21:07 37.624867 -122.392683 299 22ft 20kts
15-May-19 21:08 37.628250 -122.396421 44 22ft 0kts
15-May-19 21:09 37.625793 -122.391798 123 22ft 29kts
15-May-19 21:10 37.610644 -122.355741 122 1302ft 162kts
15-May-19 21:11 37.586763 -122.294391 120 3591ft 226kts
15-May-19 21:12 37.549646 -122.223970 144 6703ft 248kts
15-May-19 21:13 37.496774 -122.162779 145 9888ft 274kts
15-May-19 21:14 37.439625 -122.101492 147 10006ft 267kts
15-May-19 21:15 37.381240 -122.040565 147 10806ft 295kts
15-May-19 21:15 37.322452 -121.984081 151 12701ft 331kts
15-May-19 21:17 37.232429 -121.904372 150 16576ft 348kts
15-May-19 21:18 37.151497 -121.832790 150 19616ft 365kts
15-May-19 21:19 37.066143 -121.757503 150 22183ft 383kts
15-May-19 21:20 36.977197 -121.679268 151 24384ft 399kts
15-May-19 21:20 36.900534 -121.612015 152 26039ft 409kts
15-May-19 21:22 36.789869 -121.515241 152 27977ft 421kts
15-May-19 21:22 36.709117 -121.444841 153 29108ft 429kts
15-May-19 21:23 36.610597 -121.359193 153 30218ft 436kts
15-May-19 21:24 36.510109 -121.272114 153 31092ft 440kts
15-May-19 21:25 36.410281 -121.185878 154 32321ft 436kts
15-May-19 21:27 36.299116 -121.076421 150 33576ft 440kts
15-May-19 21:27 36.220394 -120.995453 149 34398ft 440kts
15-May-19 21:28 36.126150 -120.899082 150 34873ft 439kts
15-May-19 21:29 36.032364 -120.803624 150 34840ft 435kts
15-May-19 21:30 35.938766 -120.708667 150 34899ft 439kts
15-May-19 21:31 35.843518 -120.612327 150 34909ft 444kts
15-May-19 21:32 35.747746 -120.515732 150 34912ft 446kts
15-May-19 21:33 35.651356 -120.418939 150 34913ft 446kts
15-May-19 21:34 35.555257 -120.322716 150 34920ft 446kts
15-May-19 21:35 35.459159 -120.226537 150 34928ft 447kts
15-May-19 21:36 35.362483 -120.130090 150 34933ft 446kts
15-May-19 21:37 35.266134 -120.034282 150 34941ft 447kts
15-May-19 21:38 35.169342 -119.938335 150 34947ft 449kts
15-May-19 21:39 35.071885 -119.842041 150 34962ft 450kts
15-May-19 21:40 34.980598 -119.734137 144 34962ft 460kts
15-May-19 21:41 34.889855 -119.624556 144 34966ft 460kts
15-May-19 21:42 34.798558 -119.514776 145 34976ft 461kts
15-May-19 21:43 34.707405 -119.405487 145 33908ft 455kts
15-May-19 21:44 34.616096 -119.296357 144 31636ft 464kts
15-May-19 21:45 34.525014 -119.186909 143 29348ft 450kts
15-May-19 21:46 34.437027 -119.083789 144 27170ft 428kts
15-May-19 21:47 34.352573 -118.986582 145 25093ft 410kts
15-May-19 21:48 34.271154 -118.893731 145 23098ft 395kts
15-May-19 21:49 34.182714 -118.828881 168 21222ft 359kts
15-May-19 21:50 34.089241 -118.790890 168 19448ft 352kts
15-May-19 21:51 33.996992 -118.754737 168 17713ft 346kts
15-May-19 21:52 33.905807 -118.719470 168 16003ft 338kts
15-May-19 21:53 33.817539 -118.685406 167 14350ft 328kts
15-May-19 21:54 33.733843 -118.653396 169 12825ft 301kts
15-May-19 21:55 33.658158 -118.626849 168 11765ft 270kts
15-May-19 21:56 33.590717 -118.591002 134 10800ft 279kts
15-May-19 21:57 33.547238 -118.513382 127 9666ft 278kts
15-May-19 21:58 33.521259 -118.427566 95 8471ft 281kts
15-May-19 21:59 33.519927 -118.335549 81 7125ft 274kts
15-May-19 22:00 33.544704 -118.249862 71 5950ft 268kts
15-May-19 22:01 33.572206 -118.168067 60 5054ft 256kts
15-May-19 22:02 33.610253 -118.099358 57 4999ft 242kts
15-May-19 22:03 33.649495 -118.033056 55 4383ft 241kts
15-May-19 22:04 33.688602 -117.968515 52 3087ft 234kts
15-May-19 22:05 33.729473 -117.926321 35 2397ft 170kts
15-May-19 22:06 33.750707 -117.888954 103 1662ft 137kts
15-May-19 22:07 33.727961 -117.853431 155 1100ft 133kts
15-May-19 22:08 33.692267 -117.858681 205 352ft 133kts
15-May-19 22:09 33.669585 -117.872031 153 65ft 19kts
15-May-19 22:10 33.669111 -117.871327 98 65ft 6kts
15-May-19 22:11 33.671628 -117.868458 30 65ft 10kts

Navigation Log

Ident Type
Flight plan parsing failed, navigation log unavailable